Time;durP1;ratioP1;P1;durP2;ratioP2;P2;SDS_P1;SDS_P2;PMS_P1;PMS_P2;Temp;Humidity;BMP_temperature;BMP_pressure;BME280_temperature;BME280_humidity;BME280_pressure;Samples;Min_cycle;Max_cycle;Signal;HPM_P1;HPM_P2
2022/01/23 00:01:46;;;;;;;12.82;5.90;;;5.10;91.40;;;;;;5029977;28;20043;-81
2022/01/23 00:04:11;;;;;;;8.82;4.95;;;5.10;91.50;;;;;;5029118;28;20032;-82
2022/01/23 00:06:37;;;;;;;8.77;5.13;;;5.10;91.50;;;;;;5015290;28;20036;-82
2022/01/23 00:09:02;;;;;;;9.68;5.80;;;5.00;91.40;;;;;;5029859;28;20083;-82
2022/01/23 00:11:30;;;;;;;14.95;7.22;;;5.00;91.50;;;;;;5001370;28;20552;-82
2022/01/23 00:19:06;;;;;;;14.48;6.93;;;5.00;91.50;;;;;;5033806;28;20039;-82
2022/01/23 00:21:34;;;;;;;13.43;7.00;;;5.00;91.50;;;;;;5031719;28;20037;-82
2022/01/23 00:31:53;;;;;;;10.95;5.43;;;4.90;91.50;;;;;;5014763;28;20044;-82
2022/01/23 00:34:19;;;;;;;8.45;5.57;;;4.90;91.50;;;;;;4992103;28;20038;-82
2022/01/23 00:36:45;;;;;;;9.48;5.43;;;4.90;91.50;;;;;;5040956;28;20044;-82
2022/01/23 00:39:10;;;;;;;10.05;5.70;;;4.90;91.50;;;;;;5010041;28;20029;-82
2022/01/23 00:41:36;;;;;;;9.10;5.72;;;4.90;91.50;;;;;;5023818;28;20645;-82
2022/01/23 00:44:01;;;;;;;9.18;5.50;;;4.80;91.50;;;;;;5032015;28;20499;-82
2022/01/23 00:46:34;;;;;;;8.40;5.00;;;4.90;91.60;;;;;;5026950;28;20040;-82
2022/01/23 00:51:29;;;;;;;11.18;5.57;;;4.90;91.60;;;;;;5011764;28;20029;-82
2022/01/23 00:53:56;;;;;;;9.35;5.00;;;4.90;91.60;;;;;;4989511;28;20026;-82
2022/01/23 00:56:21;;;;;;;10.32;5.53;;;4.90;91.60;;;;;;5007840;28;20101;-82
2022/01/23 00:58:47;;;;;;;9.23;5.25;;;4.90;91.60;;;;;;5026257;28;20112;-82
2022/01/23 01:01:13;;;;;;;8.18;5.13;;;4.90;92.00;;;;;;4999322;28;20052;-81
2022/01/23 01:03:38;;;;;;;8.65;4.97;;;4.80;91.60;;;;;;5023271;28;20462;-82
2022/01/23 01:06:04;;;;;;;9.13;5.03;;;4.80;91.60;;;;;;5014269;28;20025;-82
2022/01/23 01:08:30;;;;;;;8.13;4.07;;;4.80;91.60;;;;;;5022542;28;20029;-82
2022/01/23 01:11:13;;;;;;;9.63;5.68;;;4.80;91.60;;;;;;4982010;28;20147;-82
2022/01/23 01:16:51;;;;;;;10.07;5.22;;;4.80;91.60;;;;;;5013330;28;20035;-82
2022/01/23 01:35:34;;;;;;;10.00;5.15;;;4.70;91.60;;;;;;4979976;28;20030;-80
2022/01/23 01:37:59;;;;;;;7.67;4.93;;;4.70;91.70;;;;;;5013334;28;20102;-80
2022/01/23 01:40:25;;;;;;;9.50;5.60;;;4.70;91.70;;;;;;5021651;28;20092;-80
2022/01/23 01:42:51;;;;;;;9.00;4.20;;;4.70;91.60;;;;;;5008913;28;20037;-80
2022/01/23 01:45:24;;;;;;;10.18;5.40;;;4.70;91.70;;;;;;5020646;28;20115;-80
2022/01/23 01:47:51;;;;;;;11.68;5.50;;;4.70;91.70;;;;;;5026409;28;20045;-80
2022/01/23 01:50:17;;;;;;;9.93;5.63;;;4.70;91.70;;;;;;5020633;28;20099;-80
2022/01/23 01:52:42;;;;;;;9.48;5.35;;;4.60;91.70;;;;;;5012563;28;20504;-81
2022/01/23 01:55:11;;;;;;;8.75;5.47;;;4.70;91.70;;;;;;5032210;28;20415;-81
2022/01/23 01:57:43;;;;;;;8.43;5.45;;;4.70;91.70;;;;;;5052093;28;20082;-81
2022/01/23 02:00:25;;;;;;;11.75;5.70;;;4.70;91.70;;;;;;5030114;28;20040;-81
2022/01/23 02:03:20;;;;;;;11.98;5.70;;;4.70;91.80;;;;;;5028683;28;20051;-81
2022/01/23 02:08:28;;;;;;;12.05;7.07;;;4.60;91.70;;;;;;5019576;28;20064;-81
2022/01/23 02:11:00;;;;;;;11.30;6.22;;;4.60;91.70;;;;;;5022071;28;20029;-81
2022/01/23 02:13:31;;;;;;;;;;;4.60;91.80;;;;;;4996891;28;20029;-81
2022/01/23 02:22:27;;;;;;;10.05;4.90;;;4.60;91.70;;;;;;5010833;28;20120;-81
2022/01/23 02:51:35;;;;;;;9.13;4.88;;;4.60;91.90;;;;;;5013266;28;20048;-83
2022/01/23 02:56:39;;;;;;;8.32;4.85;;;4.60;91.90;;;;;;5028664;28;20372;-81
2022/01/23 02:59:22;;;;;;;7.97;4.80;;;4.60;91.90;;;;;;5014709;28;20040;-82
2022/01/23 03:04:33;;;;;;;9.38;4.80;;;4.60;91.90;;;;;;5016339;28;20043;-82
2022/01/23 03:12:10;;;;;;;8.27;4.20;;;4.60;92.00;;;;;;5028255;28;20033;-82
2022/01/23 03:14:58;;;;;;;6.30;3.83;;;4.60;91.90;;;;;;5024340;28;20078;-82
2022/01/23 03:28:37;;;;;;;;;;;4.60;92.00;;;;;;5032512;28;20041;-82
2022/01/23 03:33:30;;;;;;;6.40;3.80;;;4.60;91.90;;;;;;5030541;28;20041;-82
2022/01/23 03:35:55;;;;;;;8.48;4.45;;;4.60;91.90;;;;;;5014277;28;20202;-82
2022/01/23 03:38:21;;;;;;;8.57;4.18;;;4.60;92.00;;;;;;5023465;28;20679;-82
2022/01/23 03:40:46;;;;;;;7.95;4.47;;;4.60;92.00;;;;;;5032050;28;20112;-81
2022/01/23 03:43:14;;;;;;;6.78;4.28;;;4.60;92.00;;;;;;4992712;28;20049;-82
2022/01/23 03:50:40;;;;;;;;;;;4.60;92.00;;;;;;5004858;28;20029;-82
2022/01/23 03:53:06;;;;;;;8.43;4.13;;;4.60;92.00;;;;;;5030930;28;20023;-82
2022/01/23 03:55:31;;;;;;;12.30;5.38;;;4.60;91.90;;;;;;5003402;28;20025;-82
2022/01/23 03:57:57;;;;;;;11.43;5.80;;;4.60;91.90;;;;;;5003690;28;20483;-82
2022/01/23 04:00:23;;;;;;;9.40;5.30;;;4.60;92.00;;;;;;4998284;28;20487;-83
2022/01/23 04:02:49;;;;;;;11.15;5.30;;;4.60;92.00;;;;;;5027536;28;20036;-82
2022/01/23 04:05:14;;;;;;;9.23;5.63;;;4.50;92.00;;;;;;5001397;28;20048;-83
2022/01/23 04:07:40;;;;;;;8.45;4.90;;;4.60;92.00;;;;;;5015515;28;20069;-82
2022/01/23 04:10:07;;;;;;;8.23;4.38;;;4.60;92.00;;;;;;4994012;28;20037;-82
2022/01/23 04:12:46;;;;;;;11.55;6.07;;;4.60;92.00;;;;;;5027638;28;20480;-82
2022/01/23 04:34:10;;;;;;;8.48;4.70;;;4.60;92.00;;;;;;5027466;28;20054;-82
2022/01/23 05:01:22;;;;;;;8.63;4.10;;;4.50;92.00;;;;;;5033678;28;20400;-82
2022/01/23 05:06:42;;;;;;;7.68;3.50;;;4.50;92.00;;;;;;5037415;28;20121;-81
2022/01/23 05:09:08;;;;;;;4.65;3.15;;;4.50;92.00;;;;;;5032651;28;20052;-82
2022/01/23 05:11:36;;;;;;;5.60;3.30;;;4.50;92.00;;;;;;5012109;28;20100;-81
2022/01/23 05:14:02;;;;;;;6.60;3.55;;;4.50;92.00;;;;;;5018449;28;20049;-82
2022/01/23 05:16:30;;;;;;;6.63;4.00;;;4.50;92.00;;;;;;5028006;28;20022;-82
2022/01/23 05:18:56;;;;;;;4.80;3.40;;;4.50;92.10;;;;;;4993530;28;20060;-83
2022/01/23 05:23:49;;;;;;;4.97;2.78;;;4.50;92.10;;;;;;5010308;28;20075;-82
2022/01/23 05:26:15;;;;;;;3.67;2.60;;;4.50;92.10;;;;;;5000034;28;20037;-82
2022/01/23 05:28:40;;;;;;;5.78;3.05;;;4.50;92.10;;;;;;5002475;28;20116;-82
2022/01/23 05:31:06;;;;;;;5.35;2.90;;;4.40;92.10;;;;;;5021269;28;20495;-81
2022/01/23 05:33:32;;;;;;;3.90;2.58;;;4.40;92.10;;;;;;4994392;28;20041;-82
2022/01/23 05:35:58;;;;;;;4.65;2.70;;;4.50;92.10;;;;;;5007175;28;20044;-83
2022/01/23 05:38:23;;;;;;;4.18;2.40;;;4.40;92.00;;;;;;5020532;28;20047;-81
2022/01/23 05:40:56;;;;;;;4.13;2.58;;;4.40;92.10;;;;;;5045449;28;20044;-81
2022/01/23 05:43:24;;;;;;;3.70;2.78;;;4.40;92.10;;;;;;5032037;28;20256;-81
2022/01/23 05:45:50;;;;;;;6.30;2.40;;;4.40;92.10;;;;;;5024572;28;20035;-83
2022/01/23 05:48:16;;;;;;;3.10;2.33;;;4.40;92.10;;;;;;5022040;28;20417;-82
2022/01/23 05:50:42;;;;;;;3.92;2.22;;;4.40;92.10;;;;;;5004709;28;20040;-82
2022/01/23 05:53:08;;;;;;;3.08;2.17;;;4.40;92.10;;;;;;5021425;28;20117;-82
2022/01/23 05:55:33;;;;;;;3.35;2.30;;;4.40;92.10;;;;;;5013859;28;20124;-81
2022/01/23 05:57:59;;;;;;;2.47;1.88;;;4.40;92.10;;;;;;5036242;28;20115;-81
2022/01/23 06:00:24;;;;;;;3.50;2.10;;;4.40;92.10;;;;;;5046363;28;20582;-81
2022/01/23 06:02:50;;;;;;;3.42;2.20;;;4.40;92.10;;;;;;5016370;28;20552;-82
2022/01/23 06:05:15;;;;;;;4.65;2.15;;;4.40;92.10;;;;;;5041553;28;20111;-82
2022/01/23 06:07:42;;;;;;;3.05;1.85;;;4.40;92.10;;;;;;5018056;28;20128;-82
2022/01/23 06:10:15;;;;;;;5.05;2.45;;;4.40;92.10;;;;;;5032273;28;20044;-82
2022/01/23 06:12:42;;;;;;;3.08;1.92;;;4.40;92.10;;;;;;5032554;28;20094;-81
2022/01/23 06:15:08;;;;;;;4.43;2.45;;;4.40;92.10;;;;;;5015554;28;20587;-84
2022/01/23 06:17:34;;;;;;;4.75;2.70;;;4.40;92.10;;;;;;5005246;28;20096;-85
2022/01/23 06:20:00;;;;;;;3.17;1.95;;;4.40;92.10;;;;;;5025984;28;20106;-83
2022/01/23 06:22:26;;;;;;;2.55;2.00;;;4.40;92.10;;;;;;5030711;28;20037;-85
2022/01/23 06:24:52;;;;;;;2.55;1.85;;;4.40;92.10;;;;;;4997962;28;20427;-85
2022/01/23 06:27:17;;;;;;;3.63;2.15;;;4.40;92.10;;;;;;5024656;28;20049;-84
2022/01/23 06:29:43;;;;;;;6.25;2.40;;;4.30;92.10;;;;;;5006613;28;20096;-84
2022/01/23 06:32:09;;;;;;;3.55;1.90;;;4.30;92.40;;;;;;5024395;28;20033;-82
2022/01/23 06:34:34;;;;;;;3.05;2.05;;;4.30;92.10;;;;;;5006490;28;20033;-84
2022/01/23 06:37:00;;;;;;;3.03;2.10;;;4.30;92.10;;;;;;4993561;28;20041;-84
2022/01/23 06:39:26;;;;;;;2.22;2.00;;;4.30;92.10;;;;;;5055784;28;20024;-85
2022/01/23 06:41:51;;;;;;;2.92;2.03;;;4.30;92.10;;;;;;5016153;28;20036;-84
2022/01/23 06:44:18;;;;;;;3.22;1.83;;;4.30;92.10;;;;;;5023411;28;20618;-83
2022/01/23 06:46:44;;;;;;;4.22;1.92;;;4.30;92.10;;;;;;5018974;28;20037;-85
2022/01/23 06:49:09;;;;;;;3.03;1.95;;;4.30;92.10;;;;;;5011973;28;20501;-84
2022/01/23 06:51:35;;;;;;;4.55;1.95;;;4.30;92.10;;;;;;5014964;28;20029;-81
2022/01/23 06:54:01;;;;;;;3.05;1.80;;;4.30;92.10;;;;;;5026995;28;20047;-81
2022/01/23 06:56:26;;;;;;;4.68;1.98;;;4.30;92.10;;;;;;4995650;28;20033;-81
2022/01/23 06:58:52;;;;;;;2.90;1.80;;;4.30;92.10;;;;;;5034491;28;20074;-82
2022/01/23 07:01:17;;;;;;;2.15;1.60;;;4.30;92.10;;;;;;5027380;28;20119;-82
2022/01/23 07:03:43;;;;;;;2.80;2.05;;;4.30;92.20;;;;;;5038548;28;20040;-82
2022/01/23 07:06:08;;;;;;;3.70;2.10;;;4.30;92.20;;;;;;5042622;28;20755;-82
2022/01/23 07:08:34;;;;;;;3.80;2.20;;;4.30;92.20;;;;;;5023791;28;20033;-82
2022/01/23 07:10:59;;;;;;;3.42;2.20;;;4.20;92.10;;;;;;5037844;28;20033;-82
2022/01/23 07:13:25;;;;;;;3.42;2.17;;;4.20;92.10;;;;;;5019040;28;20034;-82
2022/01/23 07:15:51;;;;;;;2.47;1.95;;;4.20;92.10;;;;;;5031029;28;20055;-82
2022/01/23 07:18:18;;;;;;;5.13;2.40;;;4.20;92.10;;;;;;5031464;28;20090;-82
2022/01/23 07:20:43;;;;;;;3.97;2.13;;;4.30;92.20;;;;;;5011520;28;20054;-82
2022/01/23 07:23:09;;;;;;;3.67;2.30;;;4.30;92.20;;;;;;5051802;28;20056;-82
2022/01/23 07:25:34;;;;;;;2.63;2.30;;;4.20;92.20;;;;;;5017514;28;20088;-82
2022/01/23 07:28:02;;;;;;;4.60;2.58;;;4.20;92.20;;;;;;5022982;28;20087;-82
2022/01/23 07:32:55;;;;;;;2.85;2.20;;;4.20;92.20;;;;;;5010065;28;20039;-82
2022/01/23 07:35:21;;;;;;;4.72;2.83;;;4.30;92.30;;;;;;5034919;28;20101;-82
2022/01/23 07:37:46;;;;;;;5.63;2.90;;;4.30;92.30;;;;;;5044991;28;20037;-82
2022/01/23 07:40:12;;;;;;;5.97;2.28;;;4.30;92.30;;;;;;5022827;28;20044;-82
2022/01/23 07:42:39;;;;;;;4.43;2.88;;;4.30;92.30;;;;;;5022914;28;20282;-82
2022/01/23 07:45:05;;;;;;;5.45;2.78;;;4.30;92.30;;;;;;5025781;28;20036;-82
2022/01/23 07:47:31;;;;;;;5.43;2.75;;;4.30;92.30;;;;;;5048866;28;21024;-82
2022/01/23 07:49:56;;;;;;;13.07;5.30;;;4.30;92.30;;;;;;5006184;28;20071;-82
2022/01/23 07:52:22;;;;;;;13.85;5.93;;;4.30;92.30;;;;;;5022071;28;20041;-82
2022/01/23 07:54:47;;;;;;;6.55;3.15;;;4.30;92.30;;;;;;5034950;28;20040;-82
2022/01/23 07:57:13;;;;;;;11.82;5.28;;;4.30;92.30;;;;;;5016588;28;20021;-82
2022/01/23 07:59:38;;;;;;;6.95;4.57;;;4.30;92.30;;;;;;5026180;28;20033;-82
2022/01/23 08:02:04;;;;;;;12.48;6.45;;;4.30;92.30;;;;;;5047256;28;20021;-82
2022/01/23 08:04:29;;;;;;;6.20;3.67;;;4.30;92.30;;;;;;5014771;28;20028;-82
2022/01/23 08:07:09;;;;;;;6.72;3.55;;;4.30;92.30;;;;;;5013565;28;20726;-82
2022/01/23 08:09:34;;;;;;;5.68;3.47;;;4.30;92.30;;;;;;5035833;28;20063;-82
2022/01/23 08:12:00;;;;;;;4.65;2.90;;;4.30;92.30;;;;;;5030642;28;20296;-82
2022/01/23 08:14:26;;;;;;;12.88;7.65;;;4.40;92.40;;;;;;5017854;28;20046;-82
2022/01/23 08:16:51;;;;;;;9.40;5.43;;;4.40;92.40;;;;;;5051176;28;20043;-82
2022/01/23 08:19:17;;;;;;;8.95;5.68;;;4.40;92.40;;;;;;5002002;28;20037;-82
2022/01/23 08:21:42;;;;;;;4.75;3.70;;;4.40;92.70;;;;;;4969175;28;20025;-82
2022/01/23 08:24:08;;;;;;;11.45;4.18;;;4.40;92.40;;;;;;5004576;28;20153;-82
2022/01/23 08:26:33;;;;;;;5.75;3.30;;;4.40;92.40;;;;;;5013660;28;20049;-82
2022/01/23 08:29:00;;;;;;;4.47;2.72;;;4.40;92.40;;;;;;4994949;28;20103;-82
2022/01/23 08:31:25;;;;;;;3.13;2.38;;;4.50;92.40;;;;;;5033585;28;20037;-82
2022/01/23 08:33:53;;;;;;;4.85;2.67;;;4.50;92.40;;;;;;4979248;28;20065;-82
2022/01/23 08:36:18;;;;;;;4.68;3.08;;;4.50;92.40;;;;;;5027495;28;20449;-82
2022/01/23 08:38:44;;;;;;;4.30;2.75;;;4.60;92.40;;;;;;4986219;28;20037;-82
2022/01/23 08:43:45;;;;;;;6.30;4.68;;;4.60;92.40;;;;;;5033432;28;20184;-82
2022/01/23 08:46:10;;;;;;;6.72;5.30;;;4.60;92.40;;;;;;4983074;28;20833;-82
2022/01/23 08:48:36;;;;;;;8.05;5.50;;;4.70;92.50;;;;;;5022566;28;20061;-83
2022/01/23 08:51:01;;;;;;;9.05;5.53;;;4.70;92.50;;;;;;4985298;28;20025;-82
2022/01/23 08:53:27;;;;;;;13.43;7.75;;;4.70;92.50;;;;;;4994107;28;20473;-83
2022/01/23 08:55:52;;;;;;;22.15;14.18;;;4.80;92.50;;;;;;5028396;28;20025;-82
2022/01/23 08:58:18;;;;;;;27.25;17.48;;;4.80;92.50;;;;;;5018387;28;20049;-82
2022/01/23 09:00:44;;;;;;;27.88;17.88;;;4.80;92.50;;;;;;5019941;28;20061;-82
2022/01/23 09:03:09;;;;;;;14.75;11.27;;;4.90;92.50;;;;;;5031888;28;20040;-82
2022/01/23 09:05:35;;;;;;;21.65;11.85;;;4.90;92.50;;;;;;5015735;28;20450;-82
2022/01/23 09:08:00;;;;;;;25.80;11.75;;;4.90;92.40;;;;;;5022240;28;20036;-82
2022/01/23 09:10:28;;;;;;;17.05;8.85;;;4.90;92.40;;;;;;4976504;28;20116;-82
2022/01/23 09:13:08;;;;;;;87.45;32.05;;;5.00;92.40;;;;;;5004998;28;20063;-83
2022/01/23 09:15:33;;;;;;;32.03;13.43;;;5.00;92.40;;;;;;5004420;28;20111;-83
2022/01/23 09:17:59;;;;;;;25.10;11.13;;;5.00;92.40;;;;;;5011372;28;20037;-82
2022/01/23 09:20:25;;;;;;;10.73;5.85;;;5.10;92.30;;;;;;5015482;28;20041;-82
2022/01/23 09:22:50;;;;;;;19.45;9.45;;;5.10;92.30;;;;;;5015709;28;20040;-82
2022/01/23 09:25:16;;;;;;;24.80;11.30;;;5.10;92.30;;;;;;5006618;28;20029;-82
2022/01/23 09:27:41;;;;;;;22.33;10.30;;;5.20;92.30;;;;;;5054728;28;20044;-82
2022/01/23 09:30:17;;;;;;;20.48;10.32;;;5.20;92.30;;;;;;5005238;28;20133;-82
2022/01/23 09:32:43;;;;;;;15.65;8.90;;;5.20;92.30;;;;;;4970491;28;20110;-82
2022/01/23 09:35:09;;;;;;;172.80;80.07;;;5.30;92.60;;;;;;5043231;28;20041;-82
2022/01/23 09:37:35;;;;;;;94.40;43.42;;;5.30;92.30;;;;;;5031063;28;20068;-82
2022/01/23 09:40:00;;;;;;;29.73;14.45;;;5.40;92.30;;;;;;5028774;28;21377;-82
2022/01/23 09:42:28;;;;;;;17.10;9.85;;;5.40;92.30;;;;;;5011913;28;20561;-82
2022/01/23 09:44:56;;;;;;;17.00;10.02;;;5.40;92.30;;;;;;5007046;28;20512;-84
2022/01/23 09:47:22;;;;;;;18.88;10.20;;;5.50;92.30;;;;;;5021427;28;20068;-86
2022/01/23 09:49:49;;;;;;;31.80;14.85;;;5.50;92.20;;;;;;5040275;28;20454;-85
2022/01/23 09:52:14;;;;;;;78.85;28.77;;;5.50;92.20;;;;;;5009291;28;20095;-83
2022/01/23 09:54:41;;;;;;;48.05;20.65;;;5.60;92.20;;;;;;5028023;28;20049;-86
2022/01/23 09:57:08;;;;;;;271.35;82.68;;;5.60;92.20;;;;;;5034626;28;20127;-85
2022/01/23 09:59:34;;;;;;;111.10;37.08;;;5.70;92.20;;;;;;5032703;28;20053;-83
2022/01/23 10:02:01;;;;;;;274.55;79.55;;;5.70;92.10;;;;;;5020394;28;20033;-84
2022/01/23 10:04:27;;;;;;;339.65;82.65;;;5.70;92.40;;;;;;5015132;28;20060;-85
2022/01/23 10:06:53;;;;;;;303.33;66.00;;;5.80;92.10;;;;;;5002077;28;20034;-84
2022/01/23 10:09:21;;;;;;;386.38;84.85;;;5.80;92.10;;;;;;5020327;28;20116;-85
2022/01/23 10:11:47;;;;;;;211.48;43.88;;;6.00;92.20;;;;;;5008187;28;20117;-87
2022/01/23 10:14:14;;;;;;;320.65;73.15;;;6.20;92.10;;;;;;5005978;28;20649;-81
2022/01/23 10:16:39;;;;;;;44.78;15.60;;;6.40;92.00;;;;;;5009165;28;20075;-81
2022/01/23 10:19:05;;;;;;;109.50;31.67;;;6.60;91.90;;;;;;5009753;28;20417;-82
2022/01/23 10:21:33;;;;;;;24.23;9.75;;;6.70;91.70;;;;;;5010569;28;20056;-82
2022/01/23 10:23:59;;;;;;;36.25;11.98;;;6.80;91.60;;;;;;5011751;28;20101;-82
2022/01/23 10:26:48;;;;;;;15.93;6.43;;;6.90;91.50;;;;;;5033779;28;20046;-81
2022/01/23 10:29:27;;;;;;;12.80;6.65;;;6.90;91.10;;;;;;5009579;28;20064;-82
2022/01/23 10:32:02;;;;;;;456.02;197.80;;;6.90;91.10;;;;;;5055301;28;20098;-81
2022/01/23 10:34:43;;;;;;;239.40;105.72;;;7.00;91.00;;;;;;5028899;28;20127;-85
2022/01/23 10:37:09;;;;;;;70.50;29.23;;;7.00;90.90;;;;;;5015160;28;20751;-84
2022/01/23 10:39:48;;;;;;;92.43;35.42;;;7.00;90.90;;;;;;5021202;28;20547;-84
2022/01/23 10:47:49;;;;;;;12.95;6.63;;;7.10;90.80;;;;;;5049652;28;20091;-84
2022/01/23 10:50:15;;;;;;;21.20;9.73;;;7.20;90.80;;;;;;4971128;28;20161;-84
2022/01/23 10:52:45;;;;;;;26.70;12.23;;;7.20;90.70;;;;;;5028368;28;20080;-85
2022/01/23 10:55:11;;;;;;;26.80;11.67;;;7.30;90.70;;;;;;5027191;28;20037;-85
2022/01/23 10:57:38;;;;;;;7.90;4.45;;;7.30;90.70;;;;;;5052872;28;20121;-86
2022/01/23 11:00:06;;;;;;;3.97;3.17;;;7.40;90.60;;;;;;5006903;28;20090;-86
2022/01/23 11:02:31;;;;;;;7.90;3.78;;;7.40;90.50;;;;;;5056832;28;20029;-86
2022/01/23 11:05:02;;;;;;;4.63;2.55;;;7.40;90.40;;;;;;5035016;28;20131;-85
2022/01/23 11:07:29;;;;;;;8.43;4.20;;;7.40;90.20;;;;;;5023941;28;20380;-84
2022/01/23 11:10:01;;;;;;;4.75;2.47;;;7.50;90.30;;;;;;5032275;28;20033;-85
2022/01/23 11:18:10;;;;;;;7.40;3.90;;;7.60;90.00;;;;;;5027008;28;20116;-86
2022/01/23 11:20:36;;;;;;;8.00;3.90;;;7.60;90.00;;;;;;5021484;28;20152;-87
2022/01/23 11:23:24;;;;;;;5.47;3.10;;;7.70;90.00;;;;;;5050920;28;20071;-84
2022/01/23 11:25:52;;;;;;;2.85;1.65;;;7.80;90.30;;;;;;5045204;28;20021;-84
2022/01/23 11:28:18;;;;;;;4.57;2.25;;;7.90;90.00;;;;;;5048268;28;20040;-86
2022/01/23 11:30:46;;;;;;;4.47;2.20;;;8.10;90.00;;;;;;5024471;28;20039;-86
2022/01/23 11:33:13;;;;;;;4.80;2.40;;;8.20;89.80;;;;;;4991811;28;20497;-84
2022/01/23 11:35:39;;;;;;;1.90;1.30;;;8.30;89.70;;;;;;5029899;28;20044;-86
2022/01/23 11:38:11;;;;;;;1.98;1.05;;;8.40;89.60;;;;;;5023382;28;20102;-83
2022/01/23 11:50:34;;;;;;;1.98;1.20;;;8.50;89.40;;;;;;5047731;28;20051;-83
2022/01/23 11:54:39;;;;;;;0.50;0.43;;;8.50;87.10;;;;;;5022838;28;20120;-84
2022/01/23 11:57:24;;;;;;;2.53;1.55;;;8.50;86.80;;;;;;5047816;28;20037;-83
2022/01/23 11:59:50;;;;;;;1.10;0.93;;;8.50;86.90;;;;;;5009418;28;20059;-84
2022/01/23 12:02:21;;;;;;;1.90;1.17;;;8.50;87.20;;;;;;5036887;28;20033;-84
2022/01/23 12:05:16;;;;;;;3.05;1.30;;;8.50;87.20;;;;;;5015536;28;20033;-84
2022/01/23 12:07:44;;;;;;;1.60;1.00;;;8.50;86.60;;;;;;5021205;28;20218;-84
2022/01/23 12:10:30;;;;;;;1.40;0.80;;;8.50;86.60;;;;;;4996351;28;20462;-84
2022/01/23 12:13:22;;;;;;;2.47;1.30;;;8.60;86.50;;;;;;5032031;28;20653;-83
2022/01/23 12:18:37;;;;;;;2.28;1.00;;;8.50;86.90;;;;;;5041388;28;20048;-84
2022/01/23 12:21:03;;;;;;;1.50;0.93;;;8.60;86.20;;;;;;5028800;28;20040;-83
2022/01/23 12:23:29;;;;;;;2.33;1.40;;;8.60;85.90;;;;;;4998993;28;20487;-83
2022/01/23 12:25:58;;;;;;;2.08;1.30;;;8.60;85.60;;;;;;5026661;28;20045;-82
2022/01/23 12:28:32;;;;;;;6.40;3.25;;;8.60;85.40;;;;;;5003455;28;20040;-85
2022/01/23 12:31:18;;;;;;;2.55;1.48;;;8.60;84.80;;;;;;5004173;28;20041;-83
2022/01/23 12:33:51;;;;;;;4.13;1.90;;;8.60;84.60;;;;;;5029273;28;20127;-83
2022/01/23 12:36:20;;;;;;;1.50;0.90;;;8.60;85.00;;;;;;5010915;28;20045;-82
2022/01/23 12:38:48;;;;;;;0.95;0.70;;;8.60;85.00;;;;;;5031940;28;20057;-82
2022/01/23 12:41:26;;;;;;;1.15;0.70;;;8.60;84.30;;;;;;5015223;28;20204;-82
2022/01/23 12:43:59;;;;;;;1.23;0.80;;;8.50;83.80;;;;;;5028290;28;20033;-84
2022/01/23 12:46:36;;;;;;;0.77;0.70;;;8.50;83.60;;;;;;5003065;28;20502;-83
2022/01/23 12:49:22;;;;;;;0.68;0.60;;;8.50;83.30;;;;;;5003717;28;20097;-84
2022/01/23 12:51:49;;;;;;;0.65;0.57;;;8.50;83.10;;;;;;5023006;28;20029;-82
2022/01/23 12:54:20;;;;;;;1.63;0.43;;;8.50;83.60;;;;;;5017500;28;20028;-82
2022/01/23 12:56:47;;;;;;;1.08;0.73;;;8.50;83.20;;;;;;5044475;28;20303;-83
2022/01/23 12:59:21;;;;;;;1.20;0.90;;;8.50;83.40;;;;;;5020366;28;20033;-83
2022/01/23 13:01:47;;;;;;;2.20;0.50;;;8.50;83.60;;;;;;5011568;28;20033;-83
2022/01/23 13:04:13;;;;;;;5.43;2.60;;;8.50;83.50;;;;;;5016885;28;20044;-82
2022/01/23 13:06:51;;;;;;;5.75;2.85;;;8.50;83.40;;;;;;5017076;28;20033;-83
2022/01/23 13:12:11;;;;;;;14.75;6.32;;;8.50;82.40;;;;;;5025301;28;20024;-83
2022/01/23 13:14:39;;;;;;;7.88;4.10;;;8.50;82.90;;;;;;5028989;28;20033;-83
2022/01/23 13:26:24;;;;;;;8.43;3.80;;;8.50;82.50;;;;;;5033166;28;20036;-83
2022/01/23 13:30:55;;;;;;;48.90;21.10;;;8.50;82.20;;;;;;5036483;28;20101;-82
2022/01/23 13:33:22;;;;;;;6.78;3.58;;;8.50;82.20;;;;;;5012128;28;20101;-83
2022/01/23 13:35:53;;;;;;;23.23;8.77;;;8.50;82.00;;;;;;5011144;28;20037;-82
2022/01/23 13:38:20;;;;;;;37.70;15.68;;;8.40;81.60;;;;;;4995667;28;20045;-82
2022/01/23 13:40:46;;;;;;;5.85;3.00;;;8.40;82.40;;;;;;5008620;28;20036;-83
2022/01/23 14:02:08;;;;;;;2.10;1.48;;;8.30;81.60;;;;;;5010737;28;20120;-84
2022/01/23 14:04:39;;;;;;;0.73;0.60;;;8.40;81.60;;;;;;5033875;28;20368;-84
2022/01/23 14:07:05;;;;;;;1.42;1.23;;;8.30;81.10;;;;;;4984299;28;20029;-83
2022/01/23 14:09:37;;;;;;;1.13;0.50;;;8.30;81.20;;;;;;5000364;28;20052;-86
2022/01/23 14:12:16;;;;;;;2.05;1.35;;;8.30;80.90;;;;;;5025970;28;20033;-85
2022/01/23 14:14:54;;;;;;;4.03;1.92;;;8.30;80.80;;;;;;4997780;28;20038;-83
2022/01/23 14:17:20;;;;;;;4.22;3.05;;;8.30;80.70;;;;;;5008836;28;20044;-83
2022/01/23 14:19:56;;;;;;;12.30;8.82;;;8.30;80.90;;;;;;5008851;28;20029;-84
2022/01/23 14:22:26;;;;;;;4.70;3.60;;;8.30;80.40;;;;;;5016058;28;20034;-84
2022/01/23 14:24:52;;;;;;;3.90;2.67;;;8.20;80.70;;;;;;5008031;28;20049;-85
2022/01/23 14:27:21;;;;;;;2.75;1.42;;;8.20;81.00;;;;;;4986004;28;20025;-83
2022/01/23 14:29:51;;;;;;;1.80;1.40;;;8.30;81.10;;;;;;5029516;28;20076;-86
2022/01/23 14:32:27;;;;;;;0.98;0.75;;;8.20;80.90;;;;;;5035527;28;20033;-83
2022/01/23 14:35:12;;;;;;;0.80;0.80;;;8.20;80.70;;;;;;5028890;28;20041;-86
2022/01/23 14:37:38;;;;;;;2.35;1.55;;;8.20;80.10;;;;;;5034140;28;20041;-87
2022/01/23 14:40:26;;;;;;;3.75;1.75;;;8.20;80.70;;;;;;5043612;28;20053;-84
2022/01/23 14:43:12;;;;;;;0.60;0.60;;;8.20;80.80;;;;;;5062769;28;20054;-86
2022/01/23 14:45:42;;;;;;;1.67;1.33;;;8.20;80.30;;;;;;5020994;28;20029;-84
2022/01/23 14:48:08;;;;;;;1.55;1.00;;;8.20;80.60;;;;;;5035226;28;20045;-86
2022/01/23 14:50:37;;;;;;;2.03;0.98;;;8.10;80.70;;;;;;5009507;28;20041;-86
2022/01/23 14:53:10;;;;;;;1.42;0.90;;;8.10;80.60;;;;;;5024995;28;20091;-83
2022/01/23 14:55:36;;;;;;;3.40;1.30;;;8.10;80.30;;;;;;4997823;28;20041;-86
2022/01/23 14:58:03;;;;;;;2.67;1.52;;;8.10;80.50;;;;;;5027088;28;20045;-85
2022/01/23 15:00:32;;;;;;;3.50;2.20;;;8.00;80.30;;;;;;5020235;28;20041;-86
2022/01/23 15:03:00;;;;;;;4.47;2.25;;;8.00;80.20;;;;;;5000125;28;20076;-82
2022/01/23 15:05:29;;;;;;;9.25;4.47;;;8.00;80.30;;;;;;5013038;28;20125;-82
2022/01/23 15:07:56;;;;;;;8.27;4.50;;;8.00;80.20;;;;;;5022216;28;20463;-82
2022/01/23 15:10:22;;;;;;;15.30;6.93;;;7.90;80.00;;;;;;5017073;28;20111;-82
2022/01/23 15:12:47;;;;;;;6.95;3.50;;;7.90;80.10;;;;;;5041848;28;20075;-82
2022/01/23 15:15:13;;;;;;;6.05;3.55;;;7.90;80.30;;;;;;5024871;28;20033;-82
2022/01/23 15:17:39;;;;;;;6.25;3.40;;;7.90;80.50;;;;;;5015193;28;20040;-81
2022/01/23 15:20:06;;;;;;;4.95;2.40;;;7.90;80.40;;;;;;4978108;28;20052;-83
2022/01/23 15:22:31;;;;;;;4.57;2.65;;;7.80;80.50;;;;;;5027590;28;20032;-81
2022/01/23 15:24:57;;;;;;;2.42;1.92;;;7.90;80.60;;;;;;5009831;28;20025;-81
2022/01/23 15:27:23;;;;;;;7.30;3.65;;;7.80;80.40;;;;;;4997678;28;20035;-80
2022/01/23 15:29:49;;;;;;;24.20;9.50;;;7.80;80.60;;;;;;5007811;28;20029;-80
2022/01/23 15:32:14;;;;;;;14.65;6.28;;;7.80;80.80;;;;;;5018169;28;20021;-83
2022/01/23 15:34:40;;;;;;;28.50;11.75;;;7.70;80.70;;;;;;4980032;28;20033;-82
2022/01/23 15:37:06;;;;;;;36.95;15.32;;;7.70;80.70;;;;;;5004724;28;20041;-82
2022/01/23 15:39:32;;;;;;;10.68;5.60;;;7.70;80.70;;;;;;5013632;28;20064;-81
2022/01/23 15:41:58;;;;;;;5.63;3.50;;;7.70;80.70;;;;;;4977054;28;20995;-85
2022/01/23 15:44:24;;;;;;;10.10;4.68;;;7.60;80.60;;;;;;5044940;28;20048;-82
2022/01/23 15:46:50;;;;;;;8.80;4.07;;;7.60;80.70;;;;;;5014250;28;20057;-83
2022/01/23 15:49:16;;;;;;;4.88;2.78;;;7.60;80.90;;;;;;5007036;28;20033;-83
2022/01/23 15:51:47;;;;;;;5.82;2.72;;;7.60;80.90;;;;;;5032118;28;20037;-82
2022/01/23 15:54:12;;;;;;;6.37;2.67;;;7.60;81.00;;;;;;4990668;28;20052;-84
2022/01/23 15:56:38;;;;;;;5.32;2.65;;;7.50;81.00;;;;;;5028525;28;20041;-83
2022/01/23 15:59:04;;;;;;;105.75;43.22;;;7.50;80.90;;;;;;5007508;28;20036;-81
2022/01/23 16:01:29;;;;;;;8.50;4.57;;;7.50;80.90;;;;;;5004740;28;20056;-81
2022/01/23 16:03:55;;;;;;;4.20;2.50;;;7.40;80.90;;;;;;5001746;28;20036;-81
2022/01/23 16:06:20;;;;;;;3.83;2.30;;;7.40;80.90;;;;;;5007499;28;20052;-81
2022/01/23 16:08:46;;;;;;;4.85;2.97;;;7.40;80.90;;;;;;4985378;28;20057;-81
2022/01/23 16:11:11;;;;;;;18.13;10.93;;;7.30;80.90;;;;;;4953896;28;20099;-81
2022/01/23 16:13:37;;;;;;;11.82;5.13;;;7.30;80.90;;;;;;5023710;28;20090;-81
2022/01/23 16:16:03;;;;;;;3.70;2.58;;;7.30;81.10;;;;;;4999072;28;20037;-82
2022/01/23 16:18:28;;;;;;;5.13;3.28;;;7.30;81.20;;;;;;5008476;28;20086;-81
2022/01/23 16:20:54;;;;;;;9.23;4.15;;;7.20;81.40;;;;;;5011500;28;20094;-81
2022/01/23 16:23:19;;;;;;;3.38;2.50;;;7.20;81.50;;;;;;5014395;28;20060;-81
2022/01/23 16:25:45;;;;;;;11.25;5.25;;;7.20;81.50;;;;;;5017738;28;20441;-81
2022/01/23 16:28:10;;;;;;;35.28;14.40;;;7.20;81.60;;;;;;5016894;28;20110;-81
2022/01/23 16:31:02;;;;;;;8.60;4.63;;;7.10;81.60;;;;;;5013785;28;20464;-81